الصفحة الرئيسية
METAR-TAF:

METAR-TAF

مطار :

قاعدة رمادة الجوية

رمادة, تونس

دائرة عرض: 32-19N, خط طول: 010-24E, ارتفاع: 300 متر

مراقبة الطقس الحالي

تاريخ ووقت الإصدار 37 دقيقة قبل الساعة 18:00UTC
ريح 2 عقدة من الغرب/الجنوب الغربي
درجة الحرارة 25°درجة مئوية
الرطوبة 15%
ضغط 1011 hPa

METAR: DTTD 011800Z AUTO 25002KT NCD 25/M03 Q1011

زمن: 19:37 (18:37 UTC)


TAF: مفقودة

أرصاد الطقس والتوقعات من أكثر من 4000 مطار (تقارير الطقس للمطار METAR والتنبؤ بالطقس بالمطارTAF).

المحطات المتاحة هي النقط الصفراء والحمراء على الخريطة.

حرك المؤشر فوق النقطة لمعرفة اسم المحطة.

ثم انقر لمعرفة أرصاد وتوقعات الطقس.

لتغيير الخارطة: اضغط على الأزرار الخضراء مع رمز الصليب الأسود للتكبير. على الزر الأخضر مع شرطة للتصغير، أو على الأسهم الخضراء للخرائط المجاورة.


METAR-TAF: